Port Mellon, Canada
Current Conditions -  °F | °C
As of 5:00 PM on Sunday 23 Nov 2014 (Local Time) from CYVR Reporting Station
Few Clouds Few Clouds  
Wind Chill:   Ceiling: Unl
Heat Index:   Visibility: 30mi
Dew Point:   Wind: 12mph
Humidity: 81%   Direction: 250°WSW
Pressure: 30.15"   Gusts: NA
Location:  49.52°N, 123.48°W
Report Text: CYVR 240100Z 25010KT 30SM FEW045 FEW200 08/05 A3015 RMK SC1CI1 SLP211
Loading
Personal Weather Stations






























Interactive Weather Map New forecast layout! Learn more

10-Day Weather Forecast

Advertisements
Track Severe Weather on mobile